createdAt,value
2024-05-09T00:00:54.232Z,57.80
2024-05-09T00:03:47.175Z,58.14
2024-05-09T00:06:18.664Z,58.16
2024-05-09T00:08:50.703Z,58.22
2024-05-09T00:11:23.118Z,58.32
2024-05-09T00:13:54.980Z,58.19
2024-05-09T00:16:25.460Z,57.96
2024-05-09T00:18:57.382Z,57.83
2024-05-09T00:21:27.848Z,57.69
2024-05-09T00:23:59.633Z,57.50
2024-05-09T00:26:30.197Z,57.62
2024-05-09T00:29:02.339Z,57.79
2024-05-09T00:31:32.750Z,57.85
2024-05-09T00:34:04.575Z,57.96
2024-05-09T00:36:35.329Z,57.98
2024-05-09T00:39:07.087Z,58.10
2024-05-09T00:41:37.424Z,58.17
2024-05-09T00:44:09.408Z,58.26
2024-05-09T00:46:39.856Z,58.43
2024-05-09T00:49:11.963Z,58.66
2024-05-09T00:51:42.222Z,58.76
2024-05-09T00:54:14.197Z,58.94
2024-05-09T00:56:44.575Z,59.09
2024-05-09T00:59:16.654Z,59.41
2024-05-09T01:01:47.099Z,59.57
2024-05-09T01:04:18.957Z,60.12
2024-05-09T01:06:49.356Z,60.53
2024-05-09T01:09:21.010Z,60.69
2024-05-09T01:11:51.740Z,60.58
2024-05-09T01:14:23.376Z,60.40
2024-05-09T01:16:54.047Z,60.19
2024-05-09T01:19:29.837Z,60.10
2024-05-09T01:22:01.530Z,60.14
2024-05-09T01:24:31.959Z,60.28
2024-05-09T01:27:04.236Z,60.56
2024-05-09T01:29:34.385Z,61.14
2024-05-09T01:32:06.352Z,61.34
2024-05-09T01:34:36.847Z,61.47
2024-05-09T01:37:08.601Z,61.46
2024-05-09T01:39:38.829Z,61.36
2024-05-09T01:42:10.594Z,61.18
2024-05-09T01:44:41.434Z,61.09
2024-05-09T01:47:13.293Z,61.12
2024-05-09T01:49:44.025Z,61.18
2024-05-09T01:52:15.873Z,61.40
2024-05-09T01:54:46.415Z,61.48
2024-05-09T01:57:18.152Z,61.61
2024-05-09T01:59:48.681Z,61.70
2024-05-09T02:02:20.618Z,61.88
2024-05-09T02:04:51.518Z,62.27
2024-05-09T02:07:23.252Z,62.43
2024-05-09T02:09:54.385Z,62.16
2024-05-09T02:12:25.972Z,61.52
2024-05-09T02:14:56.563Z,61.20
2024-05-09T02:17:28.351Z,61.01
2024-05-09T02:19:59.454Z,61.07
2024-05-09T02:22:31.237Z,61.10
2024-05-09T02:25:01.447Z,61.26
2024-05-09T02:27:33.618Z,61.25
2024-05-09T02:30:09.887Z,61.34
2024-05-09T02:32:47.579Z,61.37
2024-05-09T02:35:18.774Z,61.33
2024-05-09T02:37:50.388Z,61.36
2024-05-09T02:40:28.913Z,61.35
2024-05-09T02:43:10.484Z,61.34
2024-05-09T02:45:43.983Z,61.55
2024-05-09T02:48:14.723Z,61.66
2024-05-09T02:50:46.520Z,61.75
2024-05-09T02:53:17.323Z,61.81
2024-05-09T02:55:48.940Z,61.99
2024-05-09T02:58:19.527Z,62.21
2024-05-09T03:00:51.008Z,62.33
2024-05-09T03:03:21.702Z,62.42
2024-05-09T03:05:53.524Z,62.59
2024-05-09T03:08:23.909Z,62.68
2024-05-09T03:10:55.596Z,62.77
2024-05-09T03:13:26.136Z,62.52
2024-05-09T03:16:00.027Z,62.42
2024-05-09T03:18:30.474Z,62.48
2024-05-09T03:21:02.261Z,62.44
2024-05-09T03:23:32.970Z,62.32
2024-05-09T03:26:09.501Z,62.32
2024-05-09T03:28:44.284Z,62.35
2024-05-09T03:31:18.499Z,62.43
2024-05-09T03:33:49.049Z,62.30
2024-05-09T03:36:21.312Z,62.04
2024-05-09T03:38:51.705Z,61.64
2024-05-09T03:41:23.687Z,60.46
2024-05-09T03:43:54.096Z,58.93
2024-05-09T03:46:25.860Z,57.36
2024-05-09T03:48:57.080Z,55.73
2024-05-09T03:51:28.762Z,54.07
2024-05-09T03:53:58.976Z,52.56
2024-05-09T03:56:30.956Z,51.15
2024-05-09T03:59:01.588Z,49.76
2024-05-09T04:01:33.216Z,48.42
2024-05-09T04:04:03.882Z,47.14
2024-05-09T04:06:35.712Z,45.84
2024-05-09T04:09:05.942Z,44.46
2024-05-09T04:11:37.780Z,43.48
2024-05-09T04:14:08.244Z,42.17
2024-05-09T04:16:39.915Z,41.16
2024-05-09T04:19:10.156Z,40.36
2024-05-09T04:21:41.955Z,39.36
2024-05-09T04:24:12.175Z,38.63
2024-05-09T04:26:44.106Z,37.83
2024-05-09T04:29:14.524Z,37.12
2024-05-09T04:31:46.318Z,36.73
2024-05-09T04:34:16.670Z,36.05
2024-05-09T04:36:48.384Z,35.80
2024-05-09T04:39:18.480Z,35.43
2024-05-09T04:41:50.075Z,35.41
2024-05-09T04:44:20.705Z,34.76
2024-05-09T04:46:52.583Z,34.39
2024-05-09T04:49:24.256Z,33.93
2024-05-09T04:51:55.725Z,33.24
2024-05-09T04:54:33.997Z,32.76
2024-05-09T04:57:08.184Z,32.22
2024-05-09T04:59:39.240Z,31.72
2024-05-09T05:02:10.998Z,31.60
2024-05-09T05:04:41.521Z,31.81
2024-05-09T05:07:13.407Z,32.37
2024-05-09T05:09:43.738Z,32.26
2024-05-09T05:12:34.222Z,32.50
2024-05-09T05:15:06.785Z,32.48
2024-05-09T05:17:37.363Z,32.34
2024-05-09T05:20:15.039Z,32.44
2024-05-09T05:22:48.005Z,32.64
2024-05-09T05:25:18.747Z,32.48
2024-05-09T05:27:50.424Z,32.65
2024-05-09T05:30:25.272Z,32.76
2024-05-09T05:33:01.136Z,32.67
2024-05-09T05:35:31.664Z,32.67
2024-05-09T05:38:04.088Z,32.29
2024-05-09T05:40:37.202Z,32.30
2024-05-09T05:43:16.156Z,32.31
2024-05-09T05:45:48.237Z,31.90
2024-05-09T05:48:18.946Z,31.82
2024-05-09T05:50:51.036Z,31.63
2024-05-09T05:53:21.575Z,31.35
2024-05-09T05:55:53.437Z,30.88
2024-05-09T05:58:23.748Z,30.97
2024-05-09T06:00:55.737Z,30.74
2024-05-09T06:03:26.268Z,30.67
2024-05-09T06:06:04.168Z,30.61
2024-05-09T06:08:35.747Z,30.13
2024-05-09T06:11:06.147Z,30.42
2024-05-09T06:13:37.611Z,30.36
2024-05-09T06:16:07.899Z,30.29
2024-05-09T06:18:39.806Z,30.07
2024-05-09T06:21:10.250Z,30.04
2024-05-09T06:23:46.347Z,30.13
2024-05-09T06:26:18.104Z,29.77
2024-05-09T06:28:48.365Z,29.79
2024-05-09T06:31:20.081Z,30.03
2024-05-09T06:33:50.518Z,30.33
2024-05-09T06:36:22.128Z,30.35
2024-05-09T06:38:52.482Z,30.72
2024-05-09T06:41:24.203Z,30.96
2024-05-09T06:43:54.680Z,31.18
2024-05-09T06:46:26.646Z,31.41
2024-05-09T06:48:57.398Z,31.66
2024-05-09T06:51:29.244Z,31.42
2024-05-09T06:53:59.844Z,31.51
2024-05-09T06:56:31.434Z,31.81
2024-05-09T06:59:04.907Z,31.84
2024-05-09T07:01:36.373Z,31.72
2024-05-09T07:04:06.795Z,32.01
2024-05-09T07:06:38.631Z,32.56
2024-05-09T07:09:08.998Z,33.09
2024-05-09T07:11:40.608Z,33.28
2024-05-09T07:14:11.090Z,34.07
2024-05-09T07:16:42.721Z,34.43
2024-05-09T07:19:13.319Z,35.52
2024-05-09T07:21:45.081Z,36.05
2024-05-09T07:24:15.781Z,36.83
2024-05-09T07:26:47.398Z,37.01
2024-05-09T07:29:18.226Z,37.69
2024-05-09T07:31:51.182Z,37.97
2024-05-09T07:34:21.844Z,38.14
2024-05-09T07:36:53.581Z,37.84
2024-05-09T07:39:24.688Z,38.09
2024-05-09T07:41:56.173Z,38.39
2024-05-09T07:44:26.552Z,39.11
2024-05-09T07:53:29.192Z,38.11
2024-05-09T07:55:01.676Z,38.01
2024-05-09T07:57:32.467Z,38.27
2024-05-09T08:00:04.590Z,38.54
2024-05-09T08:02:36.531Z,38.29
2024-05-09T08:05:08.163Z,37.90
2024-05-09T08:07:39.432Z,38.43
2024-05-09T08:10:13.078Z,38.71
2024-05-09T08:12:47.706Z,38.25
2024-05-09T08:15:17.976Z,38.31
2024-05-09T08:17:49.657Z,38.11
2024-05-09T08:20:27.016Z,38.34
2024-05-09T08:23:02.861Z,38.72
2024-05-09T08:25:33.380Z,38.03
2024-05-09T08:28:05.363Z,37.81
2024-05-09T08:30:37.574Z,37.00
2024-05-09T08:33:09.990Z,36.93
2024-05-09T08:35:41.053Z,36.80
2024-05-09T08:38:12.452Z,36.14
2024-05-09T08:40:43.375Z,35.76
2024-05-09T08:43:14.978Z,36.00
2024-05-09T08:45:47.002Z,36.35
2024-05-09T08:48:18.829Z,35.52
2024-05-09T08:50:51.746Z,35.53
2024-05-09T08:53:23.228Z,35.99
2024-05-09T08:55:53.656Z,35.78
2024-05-09T08:58:25.058Z,35.46
2024-05-09T09:00:55.484Z,35.38
2024-05-09T09:03:27.913Z,35.44
2024-05-09T09:06:02.981Z,35.36
2024-05-09T09:08:34.411Z,35.46
2024-05-09T09:11:04.960Z,35.32
2024-05-09T09:13:36.642Z,35.05
2024-05-09T09:16:07.447Z,35.13
2024-05-09T09:18:39.403Z,35.41
2024-05-09T09:21:12.877Z,35.34
2024-05-09T09:23:44.620Z,35.13
2024-05-09T09:26:18.352Z,34.30
2024-05-09T09:28:49.910Z,33.86
2024-05-09T09:31:20.759Z,33.76
2024-05-09T09:33:53.588Z,33.96
2024-05-09T09:36:23.937Z,33.86
2024-05-09T09:38:55.497Z,34.18
2024-05-09T09:41:25.955Z,33.84
2024-05-09T09:43:57.617Z,32.99
2024-05-09T09:46:28.958Z,32.80
2024-05-09T09:49:00.959Z,32.36
2024-05-09T09:51:31.431Z,31.90
2024-05-09T09:54:03.337Z,31.58
2024-05-09T09:56:33.474Z,32.25
2024-05-09T09:59:05.211Z,32.30
2024-05-09T10:01:36.496Z,32.61
2024-05-09T10:04:08.622Z,32.62
2024-05-09T10:06:42.298Z,32.38
2024-05-09T10:09:16.490Z,32.30
2024-05-09T10:11:51.837Z,31.69
2024-05-09T10:14:24.060Z,31.85
2024-05-09T10:17:04.298Z,31.94
2024-05-09T10:19:36.503Z,30.86
2024-05-09T10:22:09.135Z,31.25
2024-05-09T10:24:47.784Z,31.10
2024-05-09T10:27:31.341Z,30.86
2024-05-09T10:30:06.843Z,30.54
2024-05-09T10:32:40.875Z,30.89
2024-05-09T10:35:12.705Z,30.59
2024-05-09T10:37:46.325Z,30.46
2024-05-09T10:40:23.509Z,29.32
2024-05-09T10:43:04.663Z,29.00
2024-05-09T10:45:38.120Z,28.27
2024-05-09T10:48:08.797Z,28.63
2024-05-09T10:50:43.884Z,28.46
2024-05-09T10:53:17.247Z,28.60
2024-05-09T10:55:57.239Z,29.10
2024-05-09T10:58:28.858Z,29.35
2024-05-09T11:01:02.334Z,28.29
2024-05-09T11:03:36.410Z,28.39
2024-05-09T11:06:09.880Z,28.23
2024-05-09T11:08:42.263Z,29.10
2024-05-09T11:11:12.553Z,28.69
2024-05-09T11:13:44.271Z,28.75
2024-05-09T11:16:21.558Z,29.53
2024-05-09T11:18:57.288Z,29.05
2024-05-09T11:21:29.373Z,28.97
2024-05-09T11:23:59.621Z,29.01
2024-05-09T11:26:34.195Z,27.92
2024-05-09T11:29:06.797Z,27.15
2024-05-09T11:31:47.126Z,27.14
2024-05-09T11:34:18.813Z,26.28
2024-05-09T11:36:49.392Z,26.73
2024-05-09T11:39:20.978Z,26.92
2024-05-09T11:41:51.232Z,27.17
2024-05-09T11:44:22.777Z,27.28
2024-05-09T11:46:53.611Z,26.86
2024-05-09T11:49:26.993Z,26.89
2024-05-09T11:51:57.488Z,26.24
2024-05-09T11:54:29.104Z,26.07
2024-05-09T11:56:59.303Z,25.48
2024-05-09T11:59:30.987Z,25.61
2024-05-09T12:02:01.391Z,26.48
2024-05-09T12:04:33.377Z,26.43
2024-05-09T12:07:03.972Z,25.91
2024-05-09T12:09:35.806Z,25.49
2024-05-09T12:12:06.130Z,25.42
2024-05-09T12:14:37.852Z,25.23
2024-05-09T12:17:08.046Z,25.14
2024-05-09T12:19:39.663Z,24.95
2024-05-09T12:22:10.073Z,24.84
2024-05-09T12:24:41.925Z,24.23
2024-05-09T12:27:12.133Z,24.19
2024-05-09T12:29:44.212Z,24.70
2024-05-09T12:32:14.563Z,24.14
2024-05-09T12:34:46.281Z,22.94
2024-05-09T12:37:16.738Z,22.78
2024-05-09T12:39:48.483Z,23.01
2024-05-09T12:42:26.741Z,23.06
2024-05-09T12:44:59.891Z,23.01
2024-05-09T12:47:30.343Z,23.05
2024-05-09T12:50:02.979Z,23.29
2024-05-09T12:52:34.224Z,23.73
2024-05-09T12:55:06.286Z,24.25
2024-05-09T12:57:36.630Z,24.09
2024-05-09T13:00:14.232Z,24.16
2024-05-09T13:02:52.619Z,24.48
2024-05-09T13:05:22.904Z,24.17
2024-05-09T13:07:56.435Z,23.52
2024-05-09T13:10:31.989Z,23.16
2024-05-09T13:13:05.096Z,23.47
2024-05-09T13:15:36.913Z,23.90
2024-05-09T13:18:08.724Z,23.56
2024-05-09T13:20:39.404Z,23.68
2024-05-09T13:23:11.108Z,23.78
2024-05-09T13:25:41.666Z,23.62
2024-05-09T13:28:13.333Z,23.16
2024-05-09T13:30:43.769Z,23.38
2024-05-09T13:33:15.650Z,23.56
2024-05-09T13:35:49.720Z,23.36
2024-05-09T13:38:23.046Z,23.03
2024-05-09T13:40:53.448Z,22.70
2024-05-09T13:43:25.502Z,22.82
2024-05-09T13:45:57.431Z,22.85
2024-05-09T13:48:29.145Z,22.66
2024-05-09T13:50:59.585Z,22.46
2024-05-09T13:53:31.013Z,22.72
2024-05-09T13:56:01.391Z,23.07
2024-05-09T13:58:32.929Z,22.95
2024-05-09T14:01:03.558Z,23.05
2024-05-09T14:03:35.191Z,22.66
2024-05-09T14:06:07.076Z,22.70
2024-05-09T14:08:39.659Z,23.40
2024-05-09T14:11:10.468Z,23.99
2024-05-09T14:13:41.885Z,24.40
2024-05-09T14:16:12.344Z,24.63
2024-05-09T14:18:43.947Z,24.64
2024-05-09T14:21:14.079Z,24.48
2024-05-09T14:23:45.481Z,24.49
2024-05-09T14:26:15.771Z,24.56
2024-05-09T14:28:47.207Z,25.17
2024-05-09T14:31:17.546Z,24.84
2024-05-09T14:33:49.232Z,25.17
2024-05-09T14:36:19.828Z,25.38
2024-05-09T14:38:51.311Z,25.33
2024-05-09T14:41:21.736Z,25.22
2024-05-09T14:43:53.300Z,25.19
2024-05-09T14:46:23.974Z,24.90
2024-05-09T14:48:55.721Z,25.15
2024-05-09T14:51:26.553Z,24.99
2024-05-09T14:53:58.134Z,25.25
2024-05-09T14:56:28.466Z,25.19
2024-05-09T14:59:00.039Z,25.27
2024-05-09T15:01:31.083Z,24.87
2024-05-09T15:04:02.950Z,25.10
2024-05-09T15:06:33.485Z,25.34
2024-05-09T15:09:06.616Z,25.21
2024-05-09T15:11:37.028Z,25.33
2024-05-09T15:14:09.587Z,25.34
2024-05-09T15:16:39.952Z,25.35
2024-05-09T15:19:11.859Z,25.29
2024-05-09T15:21:42.163Z,25.33
2024-05-09T15:24:13.726Z,25.57
2024-05-09T15:26:44.071Z,25.42
2024-05-09T15:29:16.182Z,25.70
2024-05-09T15:31:46.344Z,25.76
2024-05-09T15:34:18.017Z,25.62
2024-05-09T15:36:51.226Z,26.01
2024-05-09T15:39:25.283Z,26.05
2024-05-09T15:41:57.425Z,26.00
2024-05-09T15:44:29.019Z,26.52
2024-05-09T15:46:59.158Z,26.55
2024-05-09T15:49:31.181Z,26.43
2024-05-09T15:52:01.789Z,26.23
2024-05-09T15:54:34.039Z,26.29
2024-05-09T15:57:05.138Z,26.40
2024-05-09T15:59:36.682Z,26.54
2024-05-09T16:02:07.911Z,26.79
2024-05-09T16:04:42.177Z,26.73
2024-05-09T16:07:12.634Z,26.39
2024-05-09T16:09:44.454Z,26.38
2024-05-09T16:12:14.771Z,25.68
2024-05-09T16:14:47.393Z,25.94
2024-05-09T16:17:17.755Z,26.18
2024-05-09T16:19:49.441Z,26.21
2024-05-09T16:22:19.802Z,26.59
2024-05-09T16:24:51.572Z,26.79
2024-05-09T16:27:22.322Z,26.61
2024-05-09T16:29:55.860Z,26.79
2024-05-09T16:32:26.114Z,26.81
2024-05-09T16:34:58.322Z,26.75
2024-05-09T16:37:29.655Z,26.76
2024-05-09T16:40:01.599Z,27.06
2024-05-09T16:42:32.181Z,27.07
2024-05-09T16:45:04.349Z,27.07
2024-05-09T16:47:35.028Z,27.01
2024-05-09T16:50:08.564Z,26.97
2024-05-09T16:52:39.309Z,26.95
2024-05-09T16:55:10.993Z,27.37
2024-05-09T16:57:41.579Z,27.35
2024-05-09T17:00:21.934Z,27.09
2024-05-09T17:03:01.937Z,27.50
2024-05-09T17:05:32.713Z,27.81
2024-05-09T17:08:04.827Z,28.11
2024-05-09T17:10:36.522Z,28.51
2024-05-09T17:13:09.911Z,28.54
2024-05-09T17:15:41.223Z,28.51
2024-05-09T17:18:12.835Z,28.42
2024-05-09T17:20:43.188Z,28.68
2024-05-09T17:23:15.769Z,28.81
2024-05-09T17:25:46.400Z,28.77
2024-05-09T17:28:18.394Z,28.89
2024-05-09T17:30:49.182Z,29.03
2024-05-09T17:33:21.304Z,29.35
2024-05-09T17:35:51.860Z,29.64
2024-05-09T17:38:23.760Z,29.94
2024-05-09T17:40:55.128Z,30.23
2024-05-09T17:43:27.165Z,30.64
2024-05-09T17:45:57.744Z,31.21
2024-05-09T17:48:29.309Z,31.82
2024-05-09T17:50:59.838Z,32.31
2024-05-09T17:53:31.249Z,32.53
2024-05-09T17:56:02.318Z,33.11
2024-05-09T17:58:34.056Z,33.72
2024-05-09T18:01:04.792Z,34.26
2024-05-09T18:03:36.911Z,34.62
2024-05-09T18:06:07.411Z,34.91
2024-05-09T18:08:38.915Z,35.34
2024-05-09T18:11:09.757Z,35.61
2024-05-09T18:13:41.339Z,35.89
2024-05-09T18:16:11.685Z,36.33
2024-05-09T18:18:43.346Z,36.62
2024-05-09T18:21:13.653Z,36.98
2024-05-09T18:23:45.148Z,37.20
2024-05-09T18:26:16.028Z,37.52
2024-05-09T18:28:47.447Z,37.72
2024-05-09T18:31:17.850Z,38.03
2024-05-09T18:33:49.496Z,38.23
2024-05-09T18:36:20.152Z,38.33
2024-05-09T18:38:51.701Z,38.38
2024-05-09T18:41:22.340Z,38.73
2024-05-09T18:43:55.164Z,39.07
2024-05-09T18:46:25.867Z,39.73
2024-05-09T18:48:58.012Z,39.89
2024-05-09T18:51:28.895Z,40.28
2024-05-09T18:54:00.475Z,40.59
2024-05-09T18:56:30.929Z,40.90
2024-05-09T18:59:02.690Z,41.21
2024-05-09T19:01:33.183Z,41.43
2024-05-09T19:04:05.329Z,41.71
2024-05-09T19:06:36.666Z,42.08
2024-05-09T19:09:08.683Z,42.64
2024-05-09T19:11:42.288Z,43.13
2024-05-09T19:14:14.162Z,43.59
2024-05-09T19:16:44.574Z,43.97
2024-05-09T19:19:16.630Z,44.19
2024-05-09T19:21:47.007Z,44.32
2024-05-09T19:24:18.605Z,44.49
2024-05-09T19:26:49.510Z,44.75
2024-05-09T19:29:21.097Z,45.06
2024-05-09T19:31:51.809Z,45.16
2024-05-09T19:34:23.758Z,45.05
2024-05-09T19:36:54.250Z,45.14
2024-05-09T19:39:26.090Z,45.34
2024-05-09T19:41:56.629Z,45.55
2024-05-09T19:44:28.307Z,45.66
2024-05-09T19:46:58.496Z,45.73
2024-05-09T19:49:30.775Z,45.86
2024-05-09T19:52:01.269Z,45.97
2024-05-09T19:54:33.230Z,46.14
2024-05-09T19:57:03.485Z,46.29
2024-05-09T19:59:35.174Z,46.50
2024-05-09T20:02:05.619Z,46.66
2024-05-09T20:04:37.546Z,46.88
2024-05-09T20:07:08.129Z,47.10
2024-05-09T20:09:40.286Z,47.29
2024-05-09T20:12:11.110Z,47.35
2024-05-09T20:14:42.986Z,47.63
2024-05-09T20:17:13.260Z,47.84
2024-05-09T20:19:45.055Z,48.06
2024-05-09T20:22:15.370Z,48.27
2024-05-09T20:24:46.978Z,48.65
2024-05-09T20:27:17.821Z,48.91
2024-05-09T20:29:49.353Z,49.14
2024-05-09T20:32:20.075Z,49.34
2024-05-09T20:34:52.272Z,49.58
2024-05-09T20:37:23.306Z,49.93
2024-05-09T20:39:55.134Z,50.21
2024-05-09T20:42:25.436Z,50.53
2024-05-09T20:44:57.167Z,50.81
2024-05-09T20:47:27.666Z,50.98
2024-05-09T20:49:59.458Z,51.14
2024-05-09T20:52:29.708Z,51.33
2024-05-09T20:55:01.421Z,51.44
2024-05-09T20:57:32.399Z,51.67
2024-05-09T21:00:12.041Z,51.90
2024-05-09T21:02:47.246Z,52.19
2024-05-09T21:05:19.151Z,52.45
2024-05-09T21:07:51.004Z,52.73
2024-05-09T21:10:22.842Z,52.83
2024-05-09T21:12:55.106Z,53.07
2024-05-09T21:15:25.253Z,53.17
2024-05-09T21:17:56.815Z,53.42
2024-05-09T21:23:02.358Z,53.80
2024-05-09T21:25:33.153Z,54.16
2024-05-09T21:28:05.328Z,54.37
2024-05-09T21:30:41.676Z,54.53
2024-05-09T21:33:15.433Z,54.76
2024-05-09T21:35:46.543Z,55.02
2024-05-09T21:38:18.194Z,55.22
2024-05-09T21:40:48.510Z,55.31
2024-05-09T21:43:20.196Z,55.48
2024-05-09T21:45:50.964Z,55.69
2024-05-09T21:48:22.592Z,55.81
2024-05-09T21:50:52.974Z,55.91
2024-05-09T21:53:24.789Z,56.11
2024-05-09T21:55:55.059Z,56.16
2024-05-09T21:58:26.885Z,56.20
2024-05-09T22:00:57.825Z,56.31
2024-05-09T22:03:29.378Z,56.36
2024-05-09T22:06:00.563Z,56.48
2024-05-09T22:08:32.218Z,56.70
2024-05-09T22:11:02.862Z,56.89
2024-05-09T22:13:34.522Z,57.01
2024-05-09T22:16:05.827Z,57.22
2024-05-09T22:18:37.475Z,57.33
2024-05-09T22:21:07.979Z,57.52
2024-05-09T22:23:39.384Z,57.73
2024-05-09T22:26:10.097Z,57.83
2024-05-09T22:28:41.500Z,58.10
2024-05-09T22:31:11.781Z,58.22
2024-05-09T22:33:46.366Z,58.36
2024-05-09T22:36:19.398Z,58.55
2024-05-09T22:38:50.006Z,58.61
2024-05-09T22:41:21.728Z,58.62
2024-05-09T22:43:52.091Z,58.75
2024-05-09T22:46:23.827Z,58.93
2024-05-09T22:48:54.690Z,59.04
2024-05-09T22:51:26.564Z,59.10
2024-05-09T22:53:57.013Z,59.10
2024-05-09T22:56:29.266Z,59.21
2024-05-09T22:59:00.638Z,59.38
2024-05-09T23:01:32.413Z,59.67
2024-05-09T23:04:03.149Z,59.95
2024-05-09T23:06:35.135Z,60.22
2024-05-09T23:09:07.461Z,60.60
2024-05-09T23:11:42.605Z,61.12
2024-05-09T23:14:15.396Z,61.67
2024-05-09T23:16:46.011Z,62.13
2024-05-09T23:19:17.675Z,62.81
2024-05-09T23:21:48.091Z,63.16
2024-05-09T23:24:19.834Z,63.73
2024-05-09T23:26:50.229Z,64.28
2024-05-09T23:29:21.934Z,64.47
2024-05-09T23:31:52.081Z,64.76
2024-05-09T23:34:24.289Z,65.09
2024-05-09T23:36:54.662Z,65.33
2024-05-09T23:39:26.209Z,65.57
2024-05-09T23:41:56.297Z,64.86
2024-05-09T23:44:27.931Z,64.21
2024-05-09T23:46:58.151Z,63.86
2024-05-09T23:49:29.830Z,63.79
2024-05-09T23:52:00.125Z,63.88
2024-05-09T23:54:32.003Z,63.99
2024-05-09T23:57:02.223Z,64.17
2024-05-09T23:59:33.878Z,64.46
